| time (UTC) | temp C | wind direction | speed KPH | gust KPH | rain 1hr cm | rain 24hr cm | rain mn cm | humidity % | barometer mb |
| 20260510203351 | 6 | 145 | 14.5 | 16.1 | 0.00 | 0.00 | 0.00 | 77 | 1014.4 |
| 20260510202851 | 6 | 136 | 8.0 | 17.7 | 0.00 | 0.00 | 0.00 | 76 | 1014.0 |
| 20260510202347 | 6 | 151 | 6.4 | 12.9 | 0.00 | 0.00 | 0.00 | 77 | 1014.0 |
| 20260510201843 | 6 | 204 | 6.4 | 12.9 | 0.00 | 0.00 | 0.00 | 77 | 1014.3 |
| 20260510201341 | 6 | 132 | 8.0 | 16.1 | 0.00 | 0.00 | 0.00 | 78 | 1014.1 |
| 20260510200837 | 6 | 113 | 8.0 | 16.1 | 0.00 | 0.00 | 0.00 | 79 | 1014.0 |
| 20260510200336 | 6 | 68 | 4.8 | 11.3 | 0.00 | 0.00 | 0.00 | 78 | 1014.0 |
| 20260510195831 | 6 | 107 | 4.8 | 14.5 | 0.00 | 0.00 | 0.00 | 79 | 1013.7 |
| 20260510195327 | 7 | 170 | 4.8 | 14.5 | 0.00 | 0.00 | 0.00 | 77 | 1013.7 |
| 20260510194823 | 8 | 116 | 4.8 | 9.7 | 0.00 | 0.00 | 0.00 | 72 | 1013.8 |
| 20260510194320 | 8 | 261 | 3.2 | 11.3 | 0.00 | 0.00 | 0.00 | 68 | 1013.4 |
| 20260510193815 | 10 | 286 | 11.3 | 12.9 | 0.00 | 0.00 | 0.00 | 52 | 1013.3 |
| 20260510193310 | 10 | 304 | 11.3 | 16.1 | 0.00 | 0.00 | 0.00 | 50 | 1013.3 |
| 20260510192806 | 11 | 313 | 9.7 | 16.1 | 0.00 | 0.00 | 0.00 | 51 | 1013.2 |
| 20260510192306 | 11 | 310 | 6.4 | 12.9 | 0.00 | 0.00 | 0.00 | 52 | 1013.0 |
| 20260510191758 | 11 | 275 | 14.5 | 17.7 | 0.00 | 0.00 | 0.00 | 50 | 1013.0 |
| 20260510191254 | 11 | 269 | 17.7 | 22.5 | 0.00 | 0.00 | 0.00 | 51 | 1012.9 |
| 20260510190752 | 11 | 306 | 20.9 | 24.1 | 0.00 | 0.00 | 0.00 | 50 | 1012.8 |
| 20260510190248 | 11 | 270 | 17.7 | 22.5 | 0.00 | 0.00 | 0.00 | 50 | 1012.8 |
| 20260510185745 | 11 | 329 | 11.3 | 16.1 | 0.00 | 0.00 | 0.00 | 53 | 1012.9 |
| 20260510185243 | 11 | 14 | 9.7 | 12.9 | 0.00 | 0.00 | 0.00 | 52 | 1012.8 |
| 20260510184739 | 10 | 285 | 11.3 | 16.1 | 0.00 | 0.00 | 0.00 | 55 | 1012.8 |
| 20260510184237 | 10 | 308 | 24.1 | 32.2 | 0.00 | 0.00 | 0.00 | 54 | 1012.7 |
| 20260510183731 | 10 | 249 | 14.5 | 32.2 | 0.00 | 0.00 | 0.00 | 52 | 1012.6 |
| 20260510183226 | 10 | 324 | 11.3 | 20.9 | 0.00 | 0.00 | 0.00 | 52 | 1012.4 |
| 20260510182723 | 10 | 310 | 14.5 | 20.9 | 0.00 | 0.00 | 0.00 | 51 | 1012.1 |
| 20260510182219 | 10 | 276 | 8.0 | 16.1 | 0.00 | 0.00 | 0.00 | 50 | 1012.2 |
| 20260510181716 | 10 | 333 | 14.5 | 22.5 | 0.00 | 0.00 | 0.00 | 48 | 1012.2 |
| 20260510181213 | 11 | 288 | 9.7 | 17.7 | 0.00 | 0.00 | 0.00 | 49 | 1012.0 |
| 20260510180709 | 11 | 313 | 12.9 | 14.5 | 0.00 | 0.00 | 0.00 | 48 | 1011.9 |
| 20260510180207 | 11 | 323 | 4.8 | 16.1 | 0.00 | 0.00 | 0.00 | 50 | 1011.9 |
| 20260510175702 | 11 | 294 | 17.7 | 25.7 | 0.00 | 0.00 | 0.00 | 49 | 1011.9 |
| 20260510175158 | 11 | 302 | 9.7 | 16.1 | 0.00 | 0.00 | 0.00 | 47 | 1011.8 |
| 20260510174655 | 11 | 289 | 11.3 | 22.5 | 0.00 | 0.00 | 0.00 | 49 | 1011.8 |
| 20260510174153 | 10 | 338 | 16.1 | 29.0 | 0.00 | 0.00 | 0.00 | 48 | 1011.9 |
| 20260510173649 | 10 | 325 | 16.1 | 20.9 | 0.00 | 0.00 | 0.00 | 49 | 1011.7 |
| 20260510173145 | 10 | 321 | 6.4 | 14.5 | 0.00 | 0.00 | 0.00 | 51 | 1011.9 |
| 20260510172640 | 11 | 315 | 11.3 | 16.1 | 0.00 | 0.00 | 0.00 | 49 | 1011.9 |
| 20260510172137 | 11 | 308 | 14.5 | 24.1 | 0.00 | 0.00 | 0.00 | 49 | 1011.9 |
| 20260510171634 | 10 | 333 | 14.5 | 20.9 | 0.00 | 0.00 | 0.00 | 48 | 1011.9 |
| 20260510171132 | 10 | 326 | 12.9 | 16.1 | 0.00 | 0.00 | 0.00 | 48 | 1012.0 |
| 20260510170628 | 11 | 289 | 17.7 | 22.5 | 0.00 | 0.00 | 0.00 | 47 | 1011.9 |
| 20260510170124 | 11 | 347 | 17.7 | 24.1 | 0.00 | 0.00 | 0.00 | 47 | 1011.6 |
| 20260510165620 | 11 | 318 | 14.5 | 22.5 | 0.00 | 0.00 | 0.00 | 48 | 1011.9 |
| 20260510165116 | 10 | 330 | 14.5 | 17.7 | 0.00 | 0.00 | 0.00 | 49 | 1012.1 |
| 20260510164614 | 10 | 310 | 9.7 | 17.7 | 0.00 | 0.00 | 0.00 | 49 | 1012.0 |
| 20260510164110 | 10 | 297 | 16.1 | 27.4 | 0.00 | 0.00 | 0.00 | 51 | 1012.0 |
| 20260510163605 | 10 | 335 | 9.7 | 20.9 | 0.00 | 0.00 | 0.00 | 49 | 1012.1 |
| 20260510163102 | 10 | 237 | 8.0 | 16.1 | 0.00 | 0.00 | 0.00 | 54 | 1012.0 |
| 20260510162556 | 10 | 331 | 17.7 | 22.5 | 0.00 | 0.00 | 0.00 | 51 | 1012.1 |
| 20260510162053 | 10 | 320 | 9.7 | 17.7 | 0.00 | 0.00 | 0.00 | 50 | 1012.2 |
| 20260510161549 | 10 | 315 | 16.1 | 25.7 | 0.00 | 0.00 | 0.00 | 51 | 1012.3 |
| 20260510161046 | 11 | 276 | 14.5 | 20.9 | 0.00 | 0.00 | 0.00 | 50 | 1011.9 |
| 20260510160543 | 10 | 248 | 8.0 | 12.9 | 0.00 | 0.00 | 0.00 | 55 | 1012.2 |
| 20260510160042 | 10 | 281 | 11.3 | 17.7 | 0.00 | 0.00 | 0.00 | 54 | 1012.1 |
| 20260510155539 | 9 | 321 | 14.5 | 17.7 | 0.00 | 0.00 | 0.00 | 54 | 1012.1 |
| 20260510155036 | 9 | 315 | 11.3 | 17.7 | 0.00 | 0.00 | 0.00 | 52 | 1011.8 |
| 20260510154531 | 9 | 280 | 9.7 | 17.7 | 0.00 | 0.00 | 0.00 | 55 | 1012.1 |
| 20260510154026 | 10 | 341 | 4.8 | 12.9 | 0.00 | 0.00 | 0.00 | 53 | 1012.1 |
| 20260510153521 | 9 | 268 | 8.0 | 14.5 | 0.00 | 0.00 | 0.00 | 55 | 1011.8 |
| 20260510153019 | 9 | 298 | 8.0 | 14.5 | 0.00 | 0.00 | 0.00 | 56 | 1011.8 |
| 20260510152516 | 9 | 320 | 12.9 | 29.0 | 0.00 | 0.00 | 0.00 | 55 | 1011.9 |
| 20260510152012 | 8 | 261 | 11.3 | 14.5 | 0.00 | 0.00 | 0.00 | 53 | 1011.8 |
| 20260510151509 | 9 | 329 | 12.9 | 24.1 | 0.00 | 0.00 | 0.00 | 55 | 1012.0 |
| 20260510151007 | 8 | 265 | 11.3 | 16.1 | 0.00 | 0.00 | 0.00 | 56 | 1011.8 |
| 20260510150501 | 8 | 297 | 14.5 | 24.1 | 0.00 | 0.00 | 0.00 | 55 | 1011.9 |
| 20260510145957 | 8 | 358 | 16.1 | 22.5 | 0.00 | 0.00 | 0.00 | 56 | 1011.6 |
| 20260510145454 | 8 | 324 | 16.1 | 29.0 | 0.00 | 0.00 | 0.00 | 55 | 1011.6 |
| 20260510144950 | 8 | 323 | 17.7 | 20.9 | 0.00 | 0.00 | 0.00 | 56 | 1011.8 |
| 20260510144448 | 8 | 298 | 12.9 | 17.7 | 0.00 | 0.00 | 0.00 | 57 | 1011.7 |
| 20260510143943 | 8 | 286 | 11.3 | 17.7 | 0.00 | 0.00 | 0.00 | 58 | 1011.5 |
| 20260510143439 | 8 | 273 | 14.5 | 22.5 | 0.00 | 0.00 | 0.00 | 58 | 1011.7 |
| 20260510142936 | 8 | 347 | 27.4 | 40.2 | 0.00 | 0.00 | 0.00 | 58 | 1011.4 |
| 20260510142433 | 7 | 329 | 12.9 | 24.1 | 0.00 | 0.00 | 0.00 | 59 | 1011.7 |
| 20260510141929 | 8 | 292 | 14.5 | 17.7 | 0.00 | 0.00 | 0.00 | 58 | 1011.7 |
| 20260510141426 | 7 | 305 | 11.3 | 14.5 | 0.00 | 0.00 | 0.00 | 61 | 1011.6 |
| 20260510140923 | 7 | 313 | 11.3 | 20.9 | 0.00 | 0.00 | 0.00 | 58 | 1011.5 |
| 20260510140414 | 7 | 303 | 9.7 | 16.1 | 0.00 | 0.00 | 0.00 | 61 | 1011.6 |
| 20260510135913 | 7 | 321 | 12.9 | 24.1 | 0.00 | 0.00 | 0.00 | 60 | 1011.6 |
| 20260510135410 | 7 | 236 | 11.3 | 20.9 | 0.00 | 0.00 | 0.00 | 60 | 1011.4 |
| 20260510134907 | 7 | 359 | 14.5 | 17.7 | 0.00 | 0.00 | 0.00 | 61 | 1011.4 |
| 20260510134403 | 7 | 322 | 11.3 | 14.5 | 0.00 | 0.00 | 0.00 | 62 | 1011.4 |
| 20260510133859 | 7 | 347 | 11.3 | 16.1 | 0.00 | 0.00 | 0.00 | 61 | 1011.2 |
| 20260510133356 | 7 | 341 | 4.8 | 22.5 | 0.00 | 0.00 | 0.00 | 62 | 1011.4 |
| 20260510132851 | 6 | 301 | 16.1 | 20.9 | 0.00 | 0.00 | 0.00 | 62 | 1011.3 |
| 20260510132349 | 7 | 0 | 16.1 | 20.9 | 0.00 | 0.00 | 0.00 | 62 | 1011.4 |
| 20260510131846 | 6 | 339 | 9.7 | 22.5 | 0.00 | 0.00 | 0.00 | 64 | 1011.3 |
| 20260510131344 | 6 | 325 | 14.5 | 20.9 | 0.00 | 0.00 | 0.00 | 63 | 1011.2 |
| 20260510130840 | 6 | 313 | 14.5 | 17.7 | 0.00 | 0.00 | 0.00 | 65 | 1011.3 |
| 20260510130337 | 6 | 341 | 16.1 | 22.5 | 0.00 | 0.00 | 0.00 | 63 | 1011.1 |
| 20260510125834 | 6 | 2 | 19.3 | 24.1 | 0.00 | 0.00 | 0.00 | 64 | 1011.0 |
| 20260510125330 | 6 | 10 | 14.5 | 20.9 | 0.00 | 0.00 | 0.00 | 67 | 1011.0 |
| 20260510124827 | 6 | 317 | 12.9 | 17.7 | 0.00 | 0.00 | 0.00 | 69 | 1010.9 |
| 20260510124324 | 6 | 336 | 16.1 | 17.7 | 0.00 | 0.00 | 0.00 | 70 | 1010.9 |
| 20260510123819 | 6 | 288 | 12.9 | 20.9 | 0.00 | 0.00 | 0.00 | 70 | 1011.1 |
| 20260510123315 | 6 | 299 | 20.9 | 25.7 | 0.00 | 0.00 | 0.00 | 71 | 1011.0 |
| 20260510122812 | 5 | 299 | 6.4 | 14.5 | 0.00 | 0.00 | 0.00 | 75 | 1011.0 |
| 20260510122308 | 5 | 289 | 11.3 | 17.7 | 0.00 | 0.00 | 0.00 | 76 | 1010.9 |
| 20260510121804 | 5 | 317 | 6.4 | 20.9 | 0.00 | 0.00 | 0.00 | 77 | 1010.6 |
| 20260510121302 | 5 | 306 | 11.3 | 17.7 | 0.00 | 0.00 | 0.00 | 76 | 1010.5 |
| 20260510120759 | 5 | 276 | 11.3 | 16.1 | 0.00 | 0.00 | 0.00 | 77 | 1010.5 |
| 20260510120255 | 5 | 263 | 12.9 | 22.5 | 0.00 | 0.00 | 0.00 | 77 | 1010.5 |
| 20260510115751 | 5 | 266 | 8.0 | 17.7 | 0.00 | 0.00 | 0.00 | 79 | 1010.3 |
| 20260510115250 | 5 | 288 | 9.7 | 17.7 | 0.00 | 0.00 | 0.00 | 80 | 1010.3 |
| 20260510114750 | 5 | 274 | 8.0 | 14.5 | 0.00 | 0.00 | 0.00 | 79 | 1010.2 |
| 20260510114248 | 4 | 295 | 8.0 | 12.9 | 0.00 | 0.00 | 0.00 | 80 | 1010.0 |
| 20260510113742 | 4 | 269 | 9.7 | 14.5 | 0.00 | 0.00 | 0.00 | 79 | 1010.1 |
| 20260510113240 | 4 | 297 | 8.0 | 14.5 | 0.00 | 0.00 | 0.00 | 81 | 1010.0 |
| 20260510112736 | 3 | 285 | 8.0 | 11.3 | 0.00 | 0.00 | 0.00 | 80 | 1010.0 |
| 20260510112233 | 3 | 302 | 8.0 | 14.5 | 0.00 | 0.00 | 0.00 | 81 | 1009.9 |
| 20260510111728 | 3 | 278 | 4.8 | 8.0 | 0.00 | 0.00 | 0.00 | 81 | 1009.9 |
| 20260510111226 | 3 | 256 | 8.0 | 9.7 | 0.00 | 0.00 | 0.00 | 82 | 1009.8 |
| 20260510110725 | 3 | 274 | 8.0 | 12.9 | 0.00 | 0.00 | 0.00 | 82 | 1009.9 |
| 20260510110224 | 2 | 269 | 8.0 | 9.7 | 0.00 | 0.00 | 0.00 | 83 | 1009.7 |
| 20260510105723 | 2 | 291 | 8.0 | 9.7 | 0.00 | 0.00 | 0.00 | 82 | 1009.5 |
| 20260510105218 | 2 | 284 | 6.4 | 12.9 | 0.00 | 0.00 | 0.00 | 82 | 1009.3 |
| 20260510104715 | 2 | 248 | 8.0 | 9.7 | 0.00 | 0.00 | 0.00 | 83 | 1009.2 |
| 20260510104212 | 2 | 290 | 8.0 | 11.3 | 0.00 | 0.00 | 0.00 | 83 | 1009.2 |
| 20260510103708 | 2 | 284 | 6.4 | 9.7 | 0.00 | 0.00 | 0.00 | 83 | 1009.1 |
| 20260510103206 | 2 | 285 | 9.7 | 12.9 | 0.00 | 0.00 | 0.00 | 82 | 1009.0 |
| 20260510102700 | 2 | 270 | 4.8 | 9.7 | 0.00 | 0.00 | 0.00 | 84 | 1008.8 |
| 20260510102156 | 2 | 293 | 6.4 | 11.3 | 0.00 | 0.00 | 0.00 | 82 | 1008.7 |
| 20260510101654 | 2 | 277 | 6.4 | 9.7 | 0.00 | 0.00 | 0.00 | 83 | 1008.7 |
| 20260510101152 | 2 | 280 | 6.4 | 9.7 | 0.00 | 0.00 | 0.00 | 82 | 1008.8 |
| 20260510100653 | 2 | 298 | 6.4 | 8.0 | 0.00 | 0.00 | 0.00 | 83 | 1008.7 |
| 20260510100151 | 2 | 271 | 8.0 | 9.7 | 0.00 | 0.00 | 0.00 | 81 | 1008.6 |
| 20260510095646 | 2 | 282 | 8.0 | 11.3 | 0.00 | 0.00 | 0.00 | 82 | 1008.7 |
| 20260510095141 | 2 | 272 | 4.8 | 11.3 | 0.00 | 0.00 | 0.00 | 83 | 1008.6 |
| 20260510094640 | 2 | 249 | 8.0 | 9.7 | 0.00 | 0.00 | 0.00 | 82 | 1008.5 |
| 20260510094136 | 2 | 285 | 6.4 | 11.3 | 0.00 | 0.00 | 0.00 | 82 | 1008.4 |
| 20260510093632 | 2 | 253 | 6.4 | 9.7 | 0.00 | 0.00 | 0.00 | 82 | 1008.5 |
| 20260510093130 | 2 | 256 | 6.4 | 12.9 | 0.00 | 0.00 | 0.00 | 82 | 1008.3 |
| 20260510092626 | 2 | 251 | 8.0 | 9.7 | 0.00 | 0.00 | 0.00 | 83 | 1008.3 |
| 20260510092121 | 2 | 258 | 8.0 | 11.3 | 0.00 | 0.00 | 0.00 | 83 | 1008.4 |
| 20260510091617 | 2 | 238 | 6.4 | 9.7 | 0.00 | 0.00 | 0.00 | 82 | 1008.1 |
| 20260510091114 | 2 | 262 | 6.4 | 8.0 | 0.00 | 0.00 | 0.00 | 82 | 1008.2 |
| 20260510090611 | 2 | 256 | 4.8 | 8.0 | 0.00 | 0.00 | 0.00 | 82 | 1008.1 |
| 20260510090107 | 2 | 291 | 4.8 | 4.8 | 0.00 | 0.00 | 0.00 | 82 | 1008.1 |
| 20260510085602 | 2 | 266 | 3.2 | 4.8 | 0.00 | 0.00 | 0.00 | 81 | 1008.0 |
| 20260510085058 | 2 | 274 | 6.4 | 9.7 | 0.00 | 0.00 | 0.00 | 82 | 1007.8 |
| 20260510084554 | 2 | 256 | 6.4 | 9.7 | 0.00 | 0.00 | 0.00 | 82 | 1007.8 |
| 20260510084051 | 2 | 260 | 6.4 | 9.7 | 0.00 | 0.00 | 0.00 | 82 | 1007.8 |
| 20260510083548 | 2 | 280 | 3.2 | 4.8 | 0.00 | 0.00 | 0.00 | 83 | 1007.7 |
| 20260510083044 | 2 | 274 | 4.8 | 4.8 | 0.00 | 0.00 | 0.00 | 82 | 1007.7 |
| 20260510082541 | 2 | 267 | 3.2 | 8.0 | 0.00 | 0.00 | 0.00 | 82 | 1007.7 |
| 20260510082036 | 2 | 276 | 4.8 | 4.8 | 0.00 | 0.00 | 0.00 | 81 | 1007.5 |
| 20260510081532 | 2 | 271 | 4.8 | 4.8 | 0.00 | 0.00 | 0.00 | 80 | 1007.7 |
| 20260510081027 | 2 | 279 | 4.8 | 9.7 | 0.00 | 0.00 | 0.00 | 79 | 1007.6 |
| 20260510080526 | 2 | 292 | 4.8 | 8.0 | 0.00 | 0.00 | 0.00 | 79 | 1007.3 |
| 20260510080024 | 2 | 284 | 4.8 | 8.0 | 0.00 | 0.00 | 0.00 | 80 | 1007.3 |
| 20260510075521 | 2 | 274 | 4.8 | 11.3 | 0.00 | 0.00 | 0.00 | 79 | 1007.4 |
| 20260510075018 | 2 | 268 | 4.8 | 8.0 | 0.00 | 0.00 | 0.00 | 80 | 1007.2 |
| 20260510074516 | 2 | 278 | 4.8 | 4.8 | 0.00 | 0.00 | 0.00 | 80 | 1007.4 |
| 20260510074011 | 2 | 291 | 4.8 | 8.0 | 0.00 | 0.00 | 0.00 | 80 | 1007.0 |
| 20260510073507 | 3 | 277 | 6.4 | 9.7 | 0.00 | 0.00 | 0.00 | 79 | 1007.1 |
| 20260510073004 | 3 | 266 | 6.4 | 9.7 | 0.00 | 0.00 | 0.00 | 78 | 1007.0 |
| 20260510072500 | 3 | 272 | 4.8 | 8.0 | 0.00 | 0.00 | 0.00 | 79 | 1007.0 |
| 20260510071956 | 3 | 294 | 6.4 | 9.7 | 0.00 | 0.00 | 0.00 | 78 | 1006.9 |
| 20260510071452 | 3 | 294 | 6.4 | 9.7 | 0.00 | 0.00 | 0.00 | 78 | 1006.9 |
| 20260510070950 | 3 | 269 | 4.8 | 9.7 | 0.00 | 0.00 | 0.00 | 80 | 1006.7 |
| 20260510070448 | 3 | 275 | 4.8 | 4.8 | 0.00 | 0.00 | 0.00 | 79 | 1006.8 |
| 20260510065943 | 3 | 277 | 4.8 | 4.8 | 0.00 | 0.00 | 0.00 | 79 | 1006.5 |
| 20260510065440 | 3 | 284 | 4.8 | 4.8 | 0.00 | 0.00 | 0.00 | 78 | 1006.4 |
| 20260510064936 | 3 | 302 | 4.8 | 4.8 | 0.00 | 0.00 | 0.00 | 78 | 1006.7 |
| 20260510064434 | 3 | 278 | 4.8 | 9.7 | 0.00 | 0.00 | 0.00 | 77 | 1006.6 |
| 20260510063930 | 3 | 282 | 6.4 | 8.0 | 0.00 | 0.00 | 0.00 | 76 | 1006.8 |
| 20260510063426 | 3 | 275 | 4.8 | 8.0 | 0.00 | 0.00 | 0.00 | 76 | 1006.7 |
| 20260510062924 | 3 | 278 | 4.8 | 8.0 | 0.00 | 0.00 | 0.00 | 76 | 1006.7 |
| 20260510062419 | 3 | 284 | 4.8 | 9.7 | 0.00 | 0.00 | 0.00 | 75 | 1006.7 |
| 20260510061915 | 3 | 277 | 6.4 | 8.0 | 0.00 | 0.00 | 0.00 | 75 | 1006.7 |
| 20260510061412 | 3 | 286 | 4.8 | 8.0 | 0.00 | 0.00 | 0.00 | 77 | 1006.7 |
| 20260510060908 | 3 | 283 | 4.8 | 9.7 | 0.00 | 0.00 | 0.00 | 78 | 1006.8 |
| 20260510060405 | 3 | 259 | 4.8 | 8.0 | 0.00 | 0.00 | 0.00 | 78 | 1006.7 |
| 20260510055901 | 3 | 262 | 6.4 | 9.7 | 0.00 | 0.00 | 0.00 | 77 | 1006.4 |
| 20260510055356 | 3 | 288 | 4.8 | 8.0 | 0.00 | 0.00 | 0.00 | 76 | 1006.4 |
| 20260510054854 | 4 | 274 | 3.2 | 4.8 | 0.00 | 0.00 | 0.00 | 76 | 1006.5 |
| 20260510054350 | 4 | 275 | 4.8 | 9.7 | 0.00 | 0.00 | 0.00 | 75 | 1006.4 |
| 20260510053845 | 4 | 294 | 4.8 | 9.7 | 0.00 | 0.00 | 0.00 | 75 | 1006.3 |
| 20260510053341 | 5 | 280 | 3.2 | 4.8 | 0.00 | 0.00 | 0.00 | 74 | 1006.1 |
| 20260510052838 | 5 | 280 | 4.8 | 4.8 | 0.00 | 0.00 | 0.00 | 72 | 1006.3 |
| 20260510052333 | 5 | 305 | 4.8 | 9.7 | 0.00 | 0.00 | 0.00 | 73 | 1006.0 |
| 20260510051830 | 5 | 304 | 3.2 | 8.0 | 0.00 | 0.00 | 0.00 | 71 | 1005.8 |
| 20260510051327 | 5 | 315 | 4.8 | 9.7 | 0.00 | 0.00 | 0.00 | 71 | 1005.9 |
| 20260510050824 | 5 | 339 | 4.8 | 8.0 | 0.00 | 0.00 | 0.00 | 71 | 1005.9 |
| 20260510050320 | 5 | 330 | 4.8 | 9.7 | 0.00 | 0.00 | 0.00 | 71 | 1005.7 |
| 20260510045817 | 5 | 314 | 9.7 | 12.9 | 0.00 | 0.00 | 0.00 | 69 | 1005.5 |
| 20260510045314 | 5 | 314 | 12.9 | 14.5 | 0.00 | 0.00 | 0.00 | 70 | 1005.7 |
| 20260510044811 | 5 | 299 | 8.0 | 11.3 | 0.00 | 0.00 | 0.00 | 71 | 1005.8 |
| 20260510044308 | 5 | 311 | 6.4 | 11.3 | 0.00 | 0.00 | 0.00 | 71 | 1005.6 |
| 20260510043804 | 5 | 305 | 4.8 | 9.7 | 0.00 | 0.00 | 0.00 | 73 | 1005.4 |
| 20260510043300 | 6 | 340 | 8.0 | 12.9 | 0.00 | 0.00 | 0.00 | 71 | 1005.6 |
| 20260510042758 | 6 | 318 | 4.8 | 14.5 | 0.00 | 0.00 | 0.00 | 72 | 1005.0 |
| 20260510042253 | 6 | 287 | 8.0 | 17.7 | 0.00 | 0.00 | 0.00 | 72 | 1005.2 |
| 20260510041750 | 6 | 312 | 6.4 | 9.7 | 0.00 | 0.00 | 0.00 | 71 | 1005.4 |
| 20260510041248 | 6 | 306 | 4.8 | 11.3 | 0.00 | 0.00 | 0.00 | 72 | 1004.8 |
| 20260510040745 | 6 | 316 | 6.4 | 11.3 | 0.00 | 0.00 | 0.00 | 72 | 1004.8 |
| 20260510040242 | 6 | 1 | 8.0 | 9.7 | 0.00 | 0.00 | 0.00 | 72 | 1004.9 |
| 20260510035737 | 6 | 278 | 4.8 | 8.0 | 0.00 | 0.00 | 0.00 | 72 | 1005.1 |
| 20260510035233 | 6 | 283 | 8.0 | 11.3 | 0.00 | 0.00 | 0.00 | 71 | 1005.0 |
| 20260510034729 | 6 | 303 | 11.3 | 12.9 | 0.00 | 0.00 | 0.00 | 70 | 1004.7 |
| 20260510034228 | 6 | 314 | 4.8 | 12.9 | 0.00 | 0.00 | 0.00 | 71 | 1004.7 |
| 20260510033723 | 6 | 334 | 8.0 | 14.5 | 0.00 | 0.00 | 0.00 | 71 | 1004.9 |
| 20260510033221 | 6 | 311 | 8.0 | 11.3 | 0.00 | 0.00 | 0.00 | 71 | 1004.6 |
| 20260510032717 | 6 | 326 | 8.0 | 12.9 | 0.00 | 0.00 | 0.00 | 72 | 1004.8 |
| 20260510032213 | 6 | 309 | 6.4 | 8.0 | 0.00 | 0.00 | 0.00 | 73 | 1004.8 |
| 20260510031708 | 6 | 306 | 8.0 | 9.7 | 0.00 | 0.00 | 0.00 | 72 | 1004.7 |
| 20260510031204 | 6 | 298 | 6.4 | 8.0 | 0.00 | 0.00 | 0.00 | 71 | 1004.6 |
| 20260510030704 | 6 | 325 | 8.0 | 24.1 | 0.00 | 0.00 | 0.00 | 70 | 1004.7 |
| 20260510030202 | 7 | 342 | 9.7 | 12.9 | 0.00 | 0.00 | 0.00 | 71 | 1004.5 |
| 20260510025659 | 7 | 325 | 11.3 | 14.5 | 0.00 | 0.00 | 0.00 | 71 | 1004.3 |
| 20260510025156 | 7 | 329 | 6.4 | 11.3 | 0.00 | 0.00 | 0.00 | 72 | 1004.2 |
| 20260510024653 | 7 | 300 | 8.0 | 12.9 | 0.00 | 0.00 | 0.00 | 73 | 1004.4 |
| 20260510024149 | 7 | 326 | 9.7 | 14.5 | 0.00 | 0.00 | 0.00 | 72 | 1004.4 |
| 20260510023645 | 7 | 337 | 9.7 | 14.5 | 0.00 | 0.00 | 0.00 | 74 | 1004.3 |
| 20260510023143 | 7 | 268 | 6.4 | 11.3 | 0.00 | 0.00 | 0.00 | 75 | 1004.1 |
| 20260510022637 | 7 | 326 | 6.4 | 14.5 | 0.00 | 0.00 | 0.00 | 73 | 1004.1 |
| 20260510022133 | 7 | 330 | 9.7 | 12.9 | 0.00 | 0.00 | 0.00 | 73 | 1004.0 |
| 20260510021628 | 7 | 292 | 6.4 | 11.3 | 0.00 | 0.00 | 0.00 | 73 | 1003.9 |
| 20260510021126 | 7 | 335 | 9.7 | 14.5 | 0.00 | 0.00 | 0.00 | 72 | 1004.1 |
| 20260510020620 | 7 | 313 | 11.3 | 14.5 | 0.00 | 0.00 | 0.00 | 72 | 1003.7 |
| 20260510020115 | 7 | 335 | 8.0 | 20.9 | 0.00 | 0.00 | 0.00 | 71 | 1003.7 |
| 20260510015612 | 7 | 348 | 9.7 | 16.1 | 0.00 | 0.00 | 0.00 | 71 | 1003.6 |
| 20260510015108 | 7 | 320 | 8.0 | 20.9 | 0.00 | 0.00 | 0.00 | 71 | 1003.7 |
| 20260510014604 | 7 | 352 | 11.3 | 29.0 | 0.00 | 0.00 | 0.00 | 71 | 1003.3 |
| 20260510014102 | 7 | 0 | 22.5 | 27.4 | 0.00 | 0.00 | 0.00 | 70 | 1003.2 |
| 20260510013556 | 7 | 21 | 9.7 | 16.1 | 0.00 | 0.00 | 0.00 | 71 | 1003.1 |
| 20260510013052 | 8 | 322 | 11.3 | 25.7 | 0.00 | 0.00 | 0.00 | 70 | 1003.0 |
| 20260510012551 | 8 | 357 | 12.9 | 22.5 | 0.00 | 0.00 | 0.00 | 70 | 1002.9 |
| 20260510012048 | 8 | 4 | 14.5 | 24.1 | 0.00 | 0.00 | 0.00 | 69 | 1002.7 |
| 20260510011548 | 8 | 2 | 17.7 | 24.1 | 0.00 | 0.00 | 0.00 | 68 | 1002.7 |
| 20260510011044 | 8 | 328 | 9.7 | 14.5 | 0.00 | 0.00 | 0.00 | 68 | 1002.3 |
| 20260510010540 | 8 | 4 | 17.7 | 32.2 | 0.00 | 0.00 | 0.00 | 67 | 1002.3 |
| 20260510010038 | 8 | 24 | 14.5 | 17.7 | 0.00 | 0.00 | 0.00 | 66 | 1002.3 |
| 20260510005533 | 9 | 11 | 19.3 | 24.1 | 0.00 | 0.00 | 0.00 | 67 | 1001.9 |
| 20260510005031 | 9 | 5 | 9.7 | 27.4 | 0.00 | 0.00 | 0.00 | 65 | 1001.9 |
| 20260510004528 | 10 | 342 | 11.3 | 14.5 | 0.00 | 0.00 | 0.00 | 64 | 1001.6 |
| 20260510004027 | 10 | 356 | 19.3 | 27.4 | 0.00 | 0.00 | 0.00 | 61 | 1001.6 |
| 20260510003523 | 11 | 308 | 19.3 | 22.5 | 0.00 | 0.00 | 0.00 | 55 | 1001.4 |
| 20260510003018 | 11 | 293 | 12.9 | 25.7 | 0.00 | 0.00 | 0.00 | 50 | 1001.1 |
| 20260510002514 | 11 | 337 | 17.7 | 29.0 | 0.00 | 0.00 | 0.00 | 49 | 1001.0 |
| 20260510002011 | 11 | 315 | 20.9 | 35.4 | 0.00 | 0.00 | 0.00 | 49 | 1001.3 |
| 20260510001509 | 11 | 320 | 17.7 | 33.8 | 0.00 | 0.00 | 0.00 | 48 | 1000.9 |
| 20260510001007 | 11 | 348 | 25.7 | 29.0 | 0.00 | 0.00 | 0.00 | 48 | 1000.8 |
| 20260510000507 | 11 | 347 | 17.7 | 20.9 | 0.00 | 0.00 | 0.00 | 49 | 1000.8 |
| 20260510000004 | 12 | 321 | 16.1 | 33.8 | 0.00 | 0.00 | 0.00 | 47 | 1000.4 |
| 20260509235501 | 12 | 315 | 17.7 | 32.2 | 0.00 | 0.00 | 0.00 | 46 | 1000.3 |
| 20260509234957 | 12 | 317 | 16.1 | 25.7 | 0.00 | 0.00 | 0.00 | 46 | 1000.2 |
| 20260509234454 | 12 | 6 | 11.3 | 16.1 | 0.00 | 0.00 | 0.00 | 46 | 1000.2 |
| 20260509233952 | 12 | 312 | 20.9 | 37.0 | 0.00 | 0.00 | 0.00 | 45 | 999.9 |
| 20260509233449 | 12 | 297 | 17.7 | 35.4 | 0.00 | 0.00 | 0.00 | 44 | 999.9 |
| 20260509232945 | 12 | 334 | 24.1 | 35.4 | 0.00 | 0.00 | 0.00 | 44 | 999.7 |
| 20260509232443 | 12 | 331 | 24.1 | 27.4 | 0.00 | 0.00 | 0.00 | 45 | 999.5 |
| 20260509231938 | 12 | 341 | 25.7 | 32.2 | 0.00 | 0.00 | 0.00 | 45 | 999.3 |
| 20260509231435 | 13 | 347 | 16.1 | 24.1 | 0.00 | 0.00 | 0.00 | 46 | 999.3 |
| 20260509230934 | 13 | 286 | 14.5 | 27.4 | 0.00 | 0.00 | 0.00 | 46 | 999.1 |
| 20260509230430 | 13 | 282 | 17.7 | 32.2 | 0.00 | 0.00 | 0.00 | 46 | 999.2 |
| 20260509225926 | 13 | 323 | 20.9 | 24.1 | 0.00 | 0.00 | 0.00 | 45 | 999.0 |
| 20260509225423 | 13 | 328 | 17.7 | 24.1 | 0.00 | 0.00 | 0.00 | 46 | 999.0 |
| 20260509224919 | 13 | 313 | 20.9 | 27.4 | 0.00 | 0.00 | 0.00 | 45 | 998.8 |
| 20260509224414 | 12 | 321 | 17.7 | 27.4 | 0.00 | 0.00 | 0.00 | 47 | 998.8 |
| 20260509223912 | 13 | 357 | 11.3 | 37.0 | 0.00 | 0.00 | 0.00 | 46 | 998.6 |
| 20260509223408 | 13 | 317 | 9.7 | 17.7 | 0.00 | 0.00 | 0.00 | 48 | 998.4 |
| 20260509222905 | 13 | 312 | 17.7 | 27.4 | 0.00 | 0.00 | 0.00 | 45 | 998.4 |
| 20260509222401 | 13 | 333 | 17.7 | 25.7 | 0.00 | 0.00 | 0.00 | 46 | 998.2 |
| 20260509221856 | 13 | 324 | 11.3 | 16.1 | 0.00 | 0.00 | 0.00 | 49 | 998.2 |
| 20260509221354 | 13 | 294 | 12.9 | 32.2 | 0.00 | 0.00 | 0.00 | 49 | 998.2 |
| 20260509220849 | 13 | 294 | 14.5 | 25.7 | 0.00 | 0.00 | 0.00 | 48 | 998.1 |
| 20260509220345 | 13 | 306 | 24.1 | 38.6 | 0.00 | 0.00 | 0.00 | 48 | 998.0 |
| 20260509215841 | 13 | 281 | 8.0 | 14.5 | 0.00 | 0.00 | 0.00 | 47 | 997.8 |
| 20260509215337 | 13 | 307 | 24.1 | 40.2 | 0.00 | 0.00 | 0.00 | 46 | 997.9 |
| 20260509214835 | 14 | 302 | 22.5 | 38.6 | 0.00 | 0.00 | 0.00 | 44 | 997.9 |
| 20260509214332 | 13 | 334 | 22.5 | 29.0 | 0.00 | 0.00 | 0.00 | 43 | 997.7 |
| 20260509213829 | 13 | 316 | 20.9 | 32.2 | 0.00 | 0.00 | 0.00 | 43 | 997.4 |
| 20260509213324 | 13 | 264 | 16.1 | 29.0 | 0.00 | 0.00 | 0.00 | 44 | 997.3 |
| 20260509212822 | 15 | 313 | 24.1 | 38.6 | 0.00 | 0.00 | 0.00 | 42 | 997.3 |
| 20260509212320 | 14 | 346 | 24.1 | 29.0 | 0.00 | 0.00 | 0.00 | 43 | 997.1 |
| 20260509211815 | 14 | 296 | 19.3 | 35.4 | 0.00 | 0.00 | 0.00 | 43 | 996.9 |
| 20260509211311 | 14 | 304 | 14.5 | 22.5 | 0.00 | 0.00 | 0.00 | 42 | 996.7 |
| 20260509210808 | 15 | 269 | 24.1 | 48.3 | 0.00 | 0.00 | 0.00 | 43 | 996.6 |
| 20260509210306 | 15 | 296 | 20.9 | 25.7 | 0.00 | 0.00 | 0.00 | 41 | 996.6 |
| 20260509205805 | 15 | 353 | 14.5 | 29.0 | 0.00 | 0.00 | 0.00 | 42 | 996.6 |
| 20260509205300 | 15 | 302 | 17.7 | 33.8 | 0.00 | 0.00 | 0.00 | 41 | 996.4 |
| 20260509204756 | 15 | 313 | 22.5 | 38.6 | 0.00 | 0.00 | 0.00 | 41 | 996.1 |
| 20260509204252 | 15 | 280 | 22.5 | 25.7 | 0.00 | 0.00 | 0.00 | 43 | 995.9 |
| 20260509203749 | 15 | 313 | 22.5 | 40.2 | 0.00 | 0.00 | 0.00 | 43 | 996.0 |